sensor_id;sensor_type;location;lat;lon;timestamp;pressure;altitude;pressure_sealevel;temperature;humidity
15308;BME280;7755;52.208;6.964;2023-02-22T00:01:36;101200.69;;;9.15;100.00
15308;BME280;7755;52.208;6.964;2023-02-22T00:05:54;101209.47;;;9.11;100.00
15308;BME280;7755;52.208;6.964;2023-02-22T00:09:59;101191.34;;;9.05;100.00
15308;BME280;7755;52.208;6.964;2023-02-22T00:14:05;101189.69;;;9.03;100.00
15308;BME280;7755;52.208;6.964;2023-02-22T00:18:32;101194.50;;;9.01;100.00
15308;BME280;7755;52.208;6.964;2023-02-22T00:22:35;101179.91;;;9.02;100.00
15308;BME280;7755;52.208;6.964;2023-02-22T00:26:38;101175.53;;;9.01;100.00
15308;BME280;7755;52.208;6.964;2023-02-22T00:30:43;101175.31;;;9.03;100.00
15308;BME280;7755;52.208;6.964;2023-02-22T00:34:50;101172.13;;;9.06;100.00
15308;BME280;7755;52.208;6.964;2023-02-22T00:38:53;101175.72;;;9.00;100.00
15308;BME280;7755;52.208;6.964;2023-02-22T00:42:57;101173.88;;;8.94;100.00
15308;BME280;7755;52.208;6.964;2023-02-22T00:47:01;101169.09;;;8.96;100.00
15308;BME280;7755;52.208;6.964;2023-02-22T00:51:05;101163.84;;;9.01;100.00
15308;BME280;7755;52.208;6.964;2023-02-22T00:55:14;101166.19;;;8.91;100.00
15308;BME280;7755;52.208;6.964;2023-02-22T00:59:18;101149.13;;;8.84;100.00
15308;BME280;7755;52.208;6.964;2023-02-22T01:03:23;101147.53;;;8.76;100.00
15308;BME280;7755;52.208;6.964;2023-02-22T01:07:27;101141.09;;;8.70;100.00
15308;BME280;7755;52.208;6.964;2023-02-22T01:11:31;101136.53;;;8.64;100.00
15308;BME280;7755;52.208;6.964;2023-02-22T01:15:36;101139.88;;;8.60;100.00
15308;BME280;7755;52.208;6.964;2023-02-22T01:19:42;101141.38;;;8.56;100.00
15308;BME280;7755;52.208;6.964;2023-02-22T01:23:45;101133.03;;;8.57;100.00
15308;BME280;7755;52.208;6.964;2023-02-22T01:27:49;101129.06;;;8.53;100.00
15308;BME280;7755;52.208;6.964;2023-02-22T01:31:54;101121.34;;;8.57;100.00
15308;BME280;7755;52.208;6.964;2023-02-22T01:35:59;101136.16;;;8.61;100.00
15308;BME280;7755;52.208;6.964;2023-02-22T01:40:04;101123.44;;;8.61;100.00
15308;BME280;7755;52.208;6.964;2023-02-22T01:44:20;101128.63;;;8.63;100.00
15308;BME280;7755;52.208;6.964;2023-02-22T01:48:31;101127.81;;;8.56;100.00
15308;BME280;7755;52.208;6.964;2023-02-22T01:52:37;101131.16;;;8.58;100.00
15308;BME280;7755;52.208;6.964;2023-02-22T01:56:46;101129.25;;;8.58;100.00
15308;BME280;7755;52.208;6.964;2023-02-22T02:00:53;101127.22;;;8.54;100.00
15308;BME280;7755;52.208;6.964;2023-02-22T02:04:58;101126.16;;;8.55;100.00
15308;BME280;7755;52.208;6.964;2023-02-22T02:09:05;101119.91;;;8.54;100.00
15308;BME280;7755;52.208;6.964;2023-02-22T02:13:11;101121.63;;;8.48;100.00
15308;BME280;7755;52.208;6.964;2023-02-22T02:17:20;101109.72;;;8.50;100.00
15308;BME280;7755;52.208;6.964;2023-02-22T02:30:44;101093.84;;;8.53;100.00
15308;BME280;7755;52.208;6.964;2023-02-22T02:34:57;101097.41;;;8.54;100.00
15308;BME280;7755;52.208;6.964;2023-02-22T02:39:09;101088.44;;;8.53;100.00
15308;BME280;7755;52.208;6.964;2023-02-22T02:43:16;101089.69;;;8.51;100.00
15308;BME280;7755;52.208;6.964;2023-02-22T02:47:22;101077.47;;;8.41;100.00
15308;BME280;7755;52.208;6.964;2023-02-22T02:51:34;101076.44;;;8.36;100.00
15308;BME280;7755;52.208;6.964;2023-02-22T02:55:38;101065.81;;;8.41;100.00
15308;BME280;7755;52.208;6.964;2023-02-22T02:59:41;101067.06;;;8.32;100.00
15308;BME280;7755;52.208;6.964;2023-02-22T03:03:56;101063.09;;;8.34;100.00
15308;BME280;7755;52.208;6.964;2023-02-22T03:08:08;101058.31;;;8.36;100.00
15308;BME280;7755;52.208;6.964;2023-02-22T03:12:22;101047.66;;;8.41;100.00
15308;BME280;7755;52.208;6.964;2023-02-22T03:16:33;101042.03;;;8.43;100.00
15308;BME280;7755;52.208;6.964;2023-02-22T03:20:46;101033.47;;;8.39;100.00
15308;BME280;7755;52.208;6.964;2023-02-22T03:24:58;101023.88;;;8.43;100.00
15308;BME280;7755;52.208;6.964;2023-02-22T03:29:10;101026.13;;;8.46;100.00
15308;BME280;7755;52.208;6.964;2023-02-22T03:33:22;101021.13;;;8.50;100.00
15308;BME280;7755;52.208;6.964;2023-02-22T03:37:33;101023.22;;;8.48;100.00
15308;BME280;7755;52.208;6.964;2023-02-22T03:41:43;101015.56;;;8.38;100.00
15308;BME280;7755;52.208;6.964;2023-02-22T03:45:49;101012.25;;;8.36;100.00
15308;BME280;7755;52.208;6.964;2023-02-22T03:49:57;101020.81;;;8.33;100.00
15308;BME280;7755;52.208;6.964;2023-02-22T03:54:03;101014.97;;;8.30;100.00
15308;BME280;7755;52.208;6.964;2023-02-22T03:58:14;101013.13;;;8.24;100.00
15308;BME280;7755;52.208;6.964;2023-02-22T04:02:18;101004.00;;;8.18;100.00
15308;BME280;7755;52.208;6.964;2023-02-22T04:06:21;101010.47;;;8.17;100.00
15308;BME280;7755;52.208;6.964;2023-02-22T04:10:24;101002.78;;;8.14;100.00
15308;BME280;7755;52.208;6.964;2023-02-22T04:14:29;101006.56;;;8.13;100.00
15308;BME280;7755;52.208;6.964;2023-02-22T04:18:32;100998.25;;;8.08;100.00
15308;BME280;7755;52.208;6.964;2023-02-22T04:22:36;100999.97;;;7.96;100.00
15308;BME280;7755;52.208;6.964;2023-02-22T04:26:40;100994.53;;;7.96;100.00
15308;BME280;7755;52.208;6.964;2023-02-22T04:30:44;101006.66;;;7.93;100.00
15308;BME280;7755;52.208;6.964;2023-02-22T04:34:50;100999.16;;;7.88;100.00
15308;BME280;7755;52.208;6.964;2023-02-22T04:38:53;101004.34;;;7.90;100.00
15308;BME280;7755;52.208;6.964;2023-02-22T04:42:56;100995.22;;;7.84;100.00
15308;BME280;7755;52.208;6.964;2023-02-22T04:47:03;100991.91;;;7.82;100.00
15308;BME280;7755;52.208;6.964;2023-02-22T04:51:07;100989.19;;;7.82;100.00
15308;BME280;7755;52.208;6.964;2023-02-22T04:55:14;100986.03;;;7.85;100.00
15308;BME280;7755;52.208;6.964;2023-02-22T04:59:18;100986.50;;;7.82;100.00
15308;BME280;7755;52.208;6.964;2023-02-22T05:03:29;100987.09;;;7.84;100.00
15308;BME280;7755;52.208;6.964;2023-02-22T05:07:32;100987.09;;;7.84;100.00
15308;BME280;7755;52.208;6.964;2023-02-22T05:11:35;100971.31;;;7.81;100.00
15308;BME280;7755;52.208;6.964;2023-02-22T05:15:39;100975.28;;;7.72;100.00
15308;BME280;7755;52.208;6.964;2023-02-22T05:19:43;100977.78;;;7.74;100.00
15308;BME280;7755;52.208;6.964;2023-02-22T05:23:48;100973.81;;;7.76;100.00
15308;BME280;7755;52.208;6.964;2023-02-22T05:27:52;100975.34;;;7.65;100.00
15308;BME280;7755;52.208;6.964;2023-02-22T05:31:56;100970.75;;;7.66;100.00
15308;BME280;7755;52.208;6.964;2023-02-22T05:36:01;100973.66;;;7.64;100.00
15308;BME280;7755;52.208;6.964;2023-02-22T05:40:05;100964.91;;;7.69;100.00
15308;BME280;7755;52.208;6.964;2023-02-22T05:44:12;100960.34;;;7.63;100.00
15308;BME280;7755;52.208;6.964;2023-02-22T05:48:16;100953.28;;;7.62;100.00
15308;BME280;7755;52.208;6.964;2023-02-22T05:52:28;100952.00;;;7.64;100.00
15308;BME280;7755;52.208;6.964;2023-02-22T05:56:31;100946.78;;;7.70;100.00
15308;BME280;7755;52.208;6.964;2023-02-22T06:00:35;100951.78;;;7.73;100.00
15308;BME280;7755;52.208;6.964;2023-02-22T06:04:39;100948.03;;;7.74;100.00
15308;BME280;7755;52.208;6.964;2023-02-22T06:08:47;100945.28;;;7.80;100.00
15308;BME280;7755;52.208;6.964;2023-02-22T06:12:52;100941.31;;;7.83;100.00
15308;BME280;7755;52.208;6.964;2023-02-22T06:16:56;100939.84;;;7.87;100.00
15308;BME280;7755;52.208;6.964;2023-02-22T06:21:00;100947.31;;;7.85;100.00
15308;BME280;7755;52.208;6.964;2023-02-22T06:25:06;100946.72;;;7.83;100.00
15308;BME280;7755;52.208;6.964;2023-02-22T06:29:09;100944.88;;;7.77;100.00
15308;BME280;7755;52.208;6.964;2023-02-22T06:33:13;100940.56;;;7.62;100.00
15308;BME280;7755;52.208;6.964;2023-02-22T06:37:17;100943.13;;;7.51;100.00
15308;BME280;7755;52.208;6.964;2023-02-22T06:41:21;100941.88;;;7.53;100.00
15308;BME280;7755;52.208;6.964;2023-02-22T06:45:26;100938.94;;;7.55;100.00
15308;BME280;7755;52.208;6.964;2023-02-22T06:49:29;100928.78;;;7.44;100.00
15308;BME280;7755;52.208;6.964;2023-02-22T06:53:33;100927.16;;;7.36;100.00
15308;BME280;7755;52.208;6.964;2023-02-22T06:57:37;100930.28;;;7.39;100.00
15308;BME280;7755;52.208;6.964;2023-02-22T07:01:41;100930.25;;;7.46;100.00
15308;BME280;7755;52.208;6.964;2023-02-22T07:05:44;100931.72;;;7.42;100.00
15308;BME280;7755;52.208;6.964;2023-02-22T07:09:47;100936.31;;;7.35;100.00
15308;BME280;7755;52.208;6.964;2023-02-22T07:13:51;100937.78;;;7.31;100.00
15308;BME280;7755;52.208;6.964;2023-02-22T07:17:57;100935.03;;;7.37;100.00
15308;BME280;7755;52.208;6.964;2023-02-22T07:22:00;100930.25;;;7.46;100.00
15308;BME280;7755;52.208;6.964;2023-02-22T07:26:03;100929.59;;;7.51;100.00
15308;BME280;7755;52.208;6.964;2023-02-22T07:30:14;100931.47;;;7.50;100.00
15308;BME280;7755;52.208;6.964;2023-02-22T07:34:18;100933.13;;;7.51;100.00
15308;BME280;7755;52.208;6.964;2023-02-22T07:38:21;100932.72;;;7.48;100.00
15308;BME280;7755;52.208;6.964;2023-02-22T07:42:24;100923.13;;;7.52;100.00
15308;BME280;7755;52.208;6.964;2023-02-22T07:46:28;100928.16;;;7.48;100.00
15308;BME280;7755;52.208;6.964;2023-02-22T07:50:32;100927.94;;;7.50;100.00
15308;BME280;7755;52.208;6.964;2023-02-22T07:54:37;100929.16;;;7.54;100.00
15308;BME280;7755;52.208;6.964;2023-02-22T07:58:40;100929.59;;;7.51;100.00
15308;BME280;7755;52.208;6.964;2023-02-22T08:02:46;100930.41;;;7.51;100.00
15308;BME280;7755;52.208;6.964;2023-02-22T08:06:49;100926.53;;;7.41;100.00
15308;BME280;7755;52.208;6.964;2023-02-22T08:10:52;100922.78;;;7.42;100.00
15308;BME280;7755;52.208;6.964;2023-02-22T08:14:55;100918.81;;;7.37;100.00
15308;BME280;7755;52.208;6.964;2023-02-22T08:18:59;100917.19;;;7.30;100.00
15308;BME280;7755;52.208;6.964;2023-02-22T08:23:03;100912.19;;;7.33;100.00
15308;BME280;7755;52.208;6.964;2023-02-22T08:27:06;100903.88;;;7.35;100.00
15308;BME280;7755;52.208;6.964;2023-02-22T08:31:09;100909.69;;;7.38;100.00
15308;BME280;7755;52.208;6.964;2023-02-22T08:35:15;100903.06;;;7.28;100.00
15308;BME280;7755;52.208;6.964;2023-02-22T08:39:19;100896.25;;;7.12;100.00
15308;BME280;7755;52.208;6.964;2023-02-22T08:43:22;100906.25;;;7.11;100.00
15308;BME280;7755;52.208;6.964;2023-02-22T08:47:26;100888.53;;;7.16;100.00
15308;BME280;7755;52.208;6.964;2023-02-22T08:51:33;100895.81;;;7.15;100.00
15308;BME280;7755;52.208;6.964;2023-02-22T08:55:38;100900.13;;;7.29;100.00
15308;BME280;7755;52.208;6.964;2023-02-22T08:59:42;100908.00;;;7.37;100.00
15308;BME280;7755;52.208;6.964;2023-02-22T09:03:47;100910.69;;;7.37;100.00
15308;BME280;7755;52.208;6.964;2023-02-22T09:07:51;100903.66;;;7.30;100.00
15308;BME280;7755;52.208;6.964;2023-02-22T09:11:54;100903.44;;;7.31;100.00
15308;BME280;7755;52.208;6.964;2023-02-22T09:15:57;100921.34;;;7.39;100.00
15308;BME280;7755;52.208;6.964;2023-02-22T09:20:04;100904.63;;;7.49;100.00
15308;BME280;7755;52.208;6.964;2023-02-22T09:24:09;100897.94;;;7.51;100.00
15308;BME280;7755;52.208;6.964;2023-02-22T09:28:12;100900.84;;;7.56;100.00
15308;BME280;7755;52.208;6.964;2023-02-22T09:32:16;100902.44;;;7.71;100.00
15308;BME280;7755;52.208;6.964;2023-02-22T09:36:19;100894.66;;;7.87;100.00
15308;BME280;7755;52.208;6.964;2023-02-22T09:40:27;100886.44;;;8.01;100.00
15308;BME280;7755;52.208;6.964;2023-02-22T09:44:35;100886.34;;;8.14;100.00
15308;BME280;7755;52.208;6.964;2023-02-22T09:48:52;100899.56;;;8.29;100.00
15308;BME280;7755;52.208;6.964;2023-02-22T09:53:01;100888.41;;;8.43;100.00
15308;BME280;7755;52.208;6.964;2023-02-22T09:57:12;100879.50;;;8.61;100.00
15308;BME280;7755;52.208;6.964;2023-02-22T10:01:22;100883.81;;;8.69;100.00
15308;BME280;7755;52.208;6.964;2023-02-22T10:05:31;100872.34;;;8.85;100.00
15308;BME280;7755;52.208;6.964;2023-02-22T10:09:40;100867.47;;;8.94;100.00
15308;BME280;7755;52.208;6.964;2023-02-22T10:13:54;100861.69;;;8.90;100.00
15308;BME280;7755;52.208;6.964;2023-02-22T10:18:17;100861.38;;;8.98;100.00
15308;BME280;7755;52.208;6.964;2023-02-22T10:22:36;100851.78;;;9.14;100.00
15308;BME280;7755;52.208;6.964;2023-02-22T10:26:43;100848.22;;;9.32;100.00
15308;BME280;7755;52.208;6.964;2023-02-22T10:30:51;100846.56;;;9.49;100.00
15308;BME280;7755;52.208;6.964;2023-02-22T10:34:59;100850.91;;;9.50;100.00
15308;BME280;7755;52.208;6.964;2023-02-22T10:39:14;100855.78;;;9.60;100.00
15308;BME280;7755;52.208;6.964;2023-02-22T10:43:22;100846.63;;;9.73;100.00
15308;BME280;7755;52.208;6.964;2023-02-22T10:47:28;100854.09;;;9.77;100.00
15308;BME280;7755;52.208;6.964;2023-02-22T10:51:31;100840.66;;;9.82;100.00
15308;BME280;7755;52.208;6.964;2023-02-22T10:55:35;100841.47;;;9.95;100.00
15308;BME280;7755;52.208;6.964;2023-02-22T10:59:39;100830.63;;;10.06;100.00
15308;BME280;7755;52.208;6.964;2023-02-22T11:03:55;100832.78;;;10.16;100.00
15308;BME280;7755;52.208;6.964;2023-02-22T11:08:14;100829.75;;;10.24;100.00
15308;BME280;7755;52.208;6.964;2023-02-22T11:12:25;100830.81;;;10.35;100.00
15308;BME280;7755;52.208;6.964;2023-02-22T11:16:32;100825.97;;;10.49;100.00
15308;BME280;7755;52.208;6.964;2023-02-22T11:20:38;100817.94;;;10.54;100.00
15308;BME280;7755;52.208;6.964;2023-02-22T11:24:46;100811.66;;;10.65;100.00
15308;BME280;7755;52.208;6.964;2023-02-22T11:28:52;100804.19;;;10.84;100.00
15308;BME280;7755;52.208;6.964;2023-02-22T11:32:58;100809.00;;;10.93;100.00
15308;BME280;7755;52.208;6.964;2023-02-22T11:37:26;100804.03;;;10.90;100.00
15308;BME280;7755;52.208;6.964;2023-02-22T11:41:33;100804.38;;;11.06;100.00
15308;BME280;7755;52.208;6.964;2023-02-22T11:45:38;100791.19;;;11.14;100.00
15308;BME280;7755;52.208;6.964;2023-02-22T11:49:59;100780.47;;;11.08;100.00
15308;BME280;7755;52.208;6.964;2023-02-22T11:54:25;100781.16;;;11.03;100.00
15308;BME280;7755;52.208;6.964;2023-02-22T11:58:40;100767.09;;;11.06;100.00
15308;BME280;7755;52.208;6.964;2023-02-22T12:07:28;100769.53;;;11.19;100.00
15308;BME280;7755;52.208;6.964;2023-02-22T12:11:44;100770.78;;;11.29;100.00
15308;BME280;7755;52.208;6.964;2023-02-22T12:15:57;100761.50;;;11.41;100.00
15308;BME280;7755;52.208;6.964;2023-02-22T12:20:08;100759.38;;;11.60;100.00
15308;BME280;7755;52.208;6.964;2023-02-22T12:24:19;100749.25;;;11.72;100.00
15308;BME280;7755;52.208;6.964;2023-02-22T12:28:33;100752.41;;;11.81;100.00
15308;BME280;7755;52.208;6.964;2023-02-22T12:33:01;100746.06;;;11.92;100.00
15308;BME280;7755;52.208;6.964;2023-02-22T12:37:21;100747.03;;;12.03;100.00
15308;BME280;7755;52.208;6.964;2023-02-22T12:41:30;100741.41;;;12.10;100.00
15308;BME280;7755;52.208;6.964;2023-02-22T12:45:43;100743.88;;;12.11;100.00
15308;BME280;7755;52.208;6.964;2023-02-22T12:49:51;100740.97;;;12.18;100.00
15308;BME280;7755;52.208;6.964;2023-02-22T12:54:02;100739.38;;;12.39;100.00
15308;BME280;7755;52.208;6.964;2023-02-22T12:58:13;100738.38;;;12.45;100.00
15308;BME280;7755;52.208;6.964;2023-02-22T13:02:27;100740.72;;;12.36;100.00
15308;BME280;7755;52.208;6.964;2023-02-22T13:06:42;100730.25;;;12.50;100.00
15308;BME280;7755;52.208;6.964;2023-02-22T13:10:57;100742.38;;;12.59;100.00
15308;BME280;7755;52.208;6.964;2023-02-22T13:15:09;100731.28;;;12.66;100.00
15308;BME280;7755;52.208;6.964;2023-02-22T13:19:29;100729.81;;;12.80;100.00
15308;BME280;7755;52.208;6.964;2023-02-22T13:23:43;100739.47;;;12.88;100.00
15308;BME280;7755;52.208;6.964;2023-02-22T13:27:52;100725.16;;;13.02;100.00
15308;BME280;7755;52.208;6.964;2023-02-22T13:32:12;100727.63;;;13.26;98.95
15308;BME280;7755;52.208;6.964;2023-02-22T13:36:34;100723.09;;;13.36;97.79
15308;BME280;7755;52.208;6.964;2023-02-22T13:40:58;100725.91;;;13.47;97.82
15308;BME280;7755;52.208;6.964;2023-02-22T13:54:36;100716.34;;;13.81;96.19
15308;BME280;7755;52.208;6.964;2023-02-22T13:58:50;100716.69;;;13.85;95.92
15308;BME280;7755;52.208;6.964;2023-02-22T14:03:00;100709.94;;;13.98;95.14
15308;BME280;7755;52.208;6.964;2023-02-22T14:11:59;100700.69;;;14.04;92.85
15308;BME280;7755;52.208;6.964;2023-02-22T14:16:23;100692.75;;;14.02;91.94
15308;BME280;7755;52.208;6.964;2023-02-22T14:20:29;100691.09;;;14.01;90.51
15308;BME280;7755;52.208;6.964;2023-02-22T14:24:42;100691.31;;;13.94;89.91
15308;BME280;7755;52.208;6.964;2023-02-22T14:28:52;100683.63;;;13.86;90.50
15308;BME280;7755;52.208;6.964;2023-02-22T14:32:57;100698.38;;;13.85;90.88
15308;BME280;7755;52.208;6.964;2023-02-22T14:37:03;100681.09;;;13.80;90.69
15308;BME280;7755;52.208;6.964;2023-02-22T14:41:08;100692.53;;;13.72;91.52
15308;BME280;7755;52.208;6.964;2023-02-22T14:45:18;100680.78;;;13.71;92.35
15308;BME280;7755;52.208;6.964;2023-02-22T14:49:27;100691.16;;;13.74;92.45
15308;BME280;7755;52.208;6.964;2023-02-22T14:53:36;100689.25;;;13.70;92.31
15308;BME280;7755;52.208;6.964;2023-02-22T14:57:50;100679.09;;;13.65;92.70
15308;BME280;7755;52.208;6.964;2023-02-22T15:06:31;100697.16;;;13.71;93.22
15308;BME280;7755;52.208;6.964;2023-02-22T15:10:41;100695.97;;;13.57;93.52
15308;BME280;7755;52.208;6.964;2023-02-22T15:14:45;100687.22;;;13.55;94.25
15308;BME280;7755;52.208;6.964;2023-02-22T15:18:52;100695.09;;;13.51;94.25
15308;BME280;7755;52.208;6.964;2023-02-22T15:22:58;100683.28;;;13.46;95.05
15308;BME280;7755;52.208;6.964;2023-02-22T15:27:02;100682.78;;;13.49;95.61
15308;BME280;7755;52.208;6.964;2023-02-22T15:31:21;100688.91;;;13.34;96.19
15308;BME280;7755;52.208;6.964;2023-02-22T15:35:28;100691.97;;;13.37;96.23
15308;BME280;7755;52.208;6.964;2023-02-22T15:39:33;100687.88;;;13.40;96.56
15308;BME280;7755;52.208;6.964;2023-02-22T15:43:44;100695.22;;;13.34;96.44
15308;BME280;7755;52.208;6.964;2023-02-22T15:47:48;100699.00;;;13.28;96.65
15308;BME280;7755;52.208;6.964;2023-02-22T15:52:03;100688.63;;;13.30;96.94
15308;BME280;7755;52.208;6.964;2023-02-22T15:56:12;100688.06;;;13.28;97.40
15308;BME280;7755;52.208;6.964;2023-02-22T16:00:21;100684.47;;;13.23;98.26
15308;BME280;7755;52.208;6.964;2023-02-22T16:04:26;100692.56;;;13.18;98.53
15308;BME280;7755;52.208;6.964;2023-02-22T16:08:35;100689.28;;;13.16;98.75
15308;BME280;7755;52.208;6.964;2023-02-22T16:13:06;100690.38;;;13.15;98.89
15308;BME280;7755;52.208;6.964;2023-02-22T16:17:25;100693.03;;;13.09;99.38
15308;BME280;7755;52.208;6.964;2023-02-22T16:21:49;100699.25;;;13.05;99.70
15308;BME280;7755;52.208;6.964;2023-02-22T16:26:02;100694.81;;;12.99;100.00
15308;BME280;7755;52.208;6.964;2023-02-22T16:30:21;100695.34;;;12.96;100.00
15308;BME280;7755;52.208;6.964;2023-02-22T16:34:26;100693.94;;;12.93;100.00
15308;BME280;7755;52.208;6.964;2023-02-22T16:38:31;100705.66;;;12.89;100.00
15308;BME280;7755;52.208;6.964;2023-02-22T16:42:39;100700.38;;;12.82;100.00
15308;BME280;7755;52.208;6.964;2023-02-22T16:46:43;100713.41;;;12.75;100.00
15308;BME280;7755;52.208;6.964;2023-02-22T16:50:47;100716.06;;;12.70;100.00
15308;BME280;7755;52.208;6.964;2023-02-22T16:54:53;100712.44;;;12.64;100.00
15308;BME280;7755;52.208;6.964;2023-02-22T16:58:56;100716.78;;;12.60;100.00
15308;BME280;7755;52.208;6.964;2023-02-22T17:03:02;100717.53;;;12.55;100.00
15308;BME280;7755;52.208;6.964;2023-02-22T17:07:07;100711.44;;;12.48;100.00
15308;BME280;7755;52.208;6.964;2023-02-22T17:11:13;100718.97;;;12.41;100.00
15308;BME280;7755;52.208;6.964;2023-02-22T17:15:34;100728.66;;;12.32;100.00
15308;BME280;7755;52.208;6.964;2023-02-22T17:19:40;100728.81;;;12.25;100.00
15308;BME280;7755;52.208;6.964;2023-02-22T17:23:43;100731.16;;;12.17;100.00
15308;BME280;7755;52.208;6.964;2023-02-22T17:27:47;100733.97;;;12.05;100.00
15308;BME280;7755;52.208;6.964;2023-02-22T17:31:52;100727.31;;;11.96;100.00
15308;BME280;7755;52.208;6.964;2023-02-22T17:35:58;100729.13;;;11.90;100.00
15308;BME280;7755;52.208;6.964;2023-02-22T17:40:04;100734.47;;;11.85;100.00
15308;BME280;7755;52.208;6.964;2023-02-22T17:44:09;100738.69;;;11.76;100.00
15308;BME280;7755;52.208;6.964;2023-02-22T17:48:13;100740.72;;;11.69;100.00
15308;BME280;7755;52.208;6.964;2023-02-22T17:52:18;100745.25;;;11.63;100.00
15308;BME280;7755;52.208;6.964;2023-02-22T17:56:21;100749.47;;;11.54;100.00
15308;BME280;7755;52.208;6.964;2023-02-22T18:00:26;100753.44;;;11.46;100.00
15308;BME280;7755;52.208;6.964;2023-02-22T18:04:35;100758.53;;;11.43;100.00
15308;BME280;7755;52.208;6.964;2023-02-22T18:08:41;100755.69;;;11.38;100.00
15308;BME280;7755;52.208;6.964;2023-02-22T18:12:45;100751.16;;;11.27;100.00
15308;BME280;7755;52.208;6.964;2023-02-22T18:16:50;100763.28;;;11.19;100.00
15308;BME280;7755;52.208;6.964;2023-02-22T18:20:53;100753.69;;;11.16;100.00
15308;BME280;7755;52.208;6.964;2023-02-22T18:25:02;100755.44;;;11.23;100.00
15308;BME280;7755;52.208;6.964;2023-02-22T18:29:05;100763.03;;;11.20;100.00
15308;BME280;7755;52.208;6.964;2023-02-22T18:33:08;100768.59;;;11.14;100.00
15308;BME280;7755;52.208;6.964;2023-02-22T18:37:12;100765.22;;;11.07;100.00
15308;BME280;7755;52.208;6.964;2023-02-22T18:41:23;100776.34;;;11.05;100.00
15308;BME280;7755;52.208;6.964;2023-02-22T18:45:26;100771.97;;;11.04;100.00
15308;BME280;7755;52.208;6.964;2023-02-22T18:49:37;100772.19;;;11.03;100.00
15308;BME280;7755;52.208;6.964;2023-02-22T18:53:54;100777.75;;;10.96;100.00
15308;BME280;7755;52.208;6.964;2023-02-22T18:58:02;100792.94;;;10.92;100.00
15308;BME280;7755;52.208;6.964;2023-02-22T19:02:11;100785.25;;;10.89;100.00
15308;BME280;7755;52.208;6.964;2023-02-22T19:06:16;100780.03;;;10.87;100.00
15308;BME280;7755;52.208;6.964;2023-02-22T19:10:19;100778.53;;;10.80;100.00
15308;BME280;7755;52.208;6.964;2023-02-22T19:14:25;100788.00;;;10.77;100.00
15308;BME280;7755;52.208;6.964;2023-02-22T19:18:28;100782.91;;;10.69;100.00
15308;BME280;7755;52.208;6.964;2023-02-22T19:22:32;100781.16;;;10.63;100.00
15308;BME280;7755;52.208;6.964;2023-02-22T19:26:35;100785.44;;;10.59;100.00
15308;BME280;7755;52.208;6.964;2023-02-22T19:30:40;100780.44;;;10.56;100.00
15308;BME280;7755;52.208;6.964;2023-02-22T19:34:43;100780.94;;;10.53;100.00
15308;BME280;7755;52.208;6.964;2023-02-22T19:38:47;100785.69;;;10.46;100.00
15308;BME280;7755;52.208;6.964;2023-02-22T19:42:53;100793.47;;;10.42;100.00
15308;BME280;7755;52.208;6.964;2023-02-22T19:46:58;100781.44;;;10.38;100.00
15308;BME280;7755;52.208;6.964;2023-02-22T19:51:04;100785.69;;;10.34;100.00
15308;BME280;7755;52.208;6.964;2023-02-22T19:55:10;100785.56;;;10.29;100.00
15308;BME280;7755;52.208;6.964;2023-02-22T19:59:23;100785.34;;;10.30;100.00
15308;BME280;7755;52.208;6.964;2023-02-22T20:03:30;100797.50;;;10.28;100.00
15308;BME280;7755;52.208;6.964;2023-02-22T20:07:36;100801.53;;;10.25;100.00
15308;BME280;7755;52.208;6.964;2023-02-22T20:11:39;100797.72;;;10.26;100.00
15308;BME280;7755;52.208;6.964;2023-02-22T20:15:42;100802.94;;;10.28;100.00
15308;BME280;7755;52.208;6.964;2023-02-22T20:19:47;100806.13;;;10.25;100.00
15308;BME280;7755;52.208;6.964;2023-02-22T20:23:52;100799.94;;;10.18;100.00
15308;BME280;7755;52.208;6.964;2023-02-22T20:27:57;100807.59;;;10.09;100.00
15308;BME280;7755;52.208;6.964;2023-02-22T20:32:02;100807.94;;;10.01;100.00
15308;BME280;7755;52.208;6.964;2023-02-22T20:36:08;100813.88;;;9.98;100.00
15308;BME280;7755;52.208;6.964;2023-02-22T20:40:11;100815.75;;;9.97;100.00
15308;BME280;7755;52.208;6.964;2023-02-22T20:44:16;100817.28;;;9.93;100.00
15308;BME280;7755;52.208;6.964;2023-02-22T20:48:20;100814.22;;;9.90;100.00
15308;BME280;7755;52.208;6.964;2023-02-22T20:52:25;100821.75;;;9.88;100.00
15308;BME280;7755;52.208;6.964;2023-02-22T20:56:29;100823.41;;;9.89;100.00
15308;BME280;7755;52.208;6.964;2023-02-22T21:00:32;100833.09;;;9.84;100.00
15308;BME280;7755;52.208;6.964;2023-02-22T21:04:36;100826.00;;;9.83;100.00
15308;BME280;7755;52.208;6.964;2023-02-22T21:08:41;100831.28;;;9.78;100.00
15308;BME280;7755;52.208;6.964;2023-02-22T21:12:45;100828.19;;;9.75;100.00
15308;BME280;7755;52.208;6.964;2023-02-22T21:16:49;100834.34;;;9.70;100.00
15308;BME280;7755;52.208;6.964;2023-02-22T21:20:53;100832.31;;;9.66;100.00
15308;BME280;7755;52.208;6.964;2023-02-22T21:24:57;100836.09;;;9.65;100.00
15308;BME280;7755;52.208;6.964;2023-02-22T21:29:03;100835.72;;;9.61;100.00
15308;BME280;7755;52.208;6.964;2023-02-22T21:33:06;100836.53;;;9.62;100.00
15308;BME280;7755;52.208;6.964;2023-02-22T21:37:09;100835.97;;;9.60;100.00
15308;BME280;7755;52.208;6.964;2023-02-22T21:41:22;100839.50;;;9.60;100.00
15308;BME280;7755;52.208;6.964;2023-02-22T21:45:29;100843.28;;;9.59;100.00
15308;BME280;7755;52.208;6.964;2023-02-22T21:49:40;100838.16;;;9.51;100.00
15308;BME280;7755;52.208;6.964;2023-02-22T21:53:50;100838.63;;;9.48;100.00
15308;BME280;7755;52.208;6.964;2023-02-22T21:57:55;100837.19;;;9.45;100.00
15308;BME280;7755;52.208;6.964;2023-02-22T22:01:58;100835.16;;;9.41;100.00
15308;BME280;7755;52.208;6.964;2023-02-22T22:06:06;100830.56;;;9.41;100.00
15308;BME280;7755;52.208;6.964;2023-02-22T22:10:11;100840.59;;;9.41;100.00
15308;BME280;7755;52.208;6.964;2023-02-22T22:14:21;100838.69;;;9.41;100.00
15308;BME280;7755;52.208;6.964;2023-02-22T22:18:25;100831.44;;;9.42;100.00